createdAt,value
2023-02-24T00:02:22.274Z,95950.81
2023-02-24T00:04:51.929Z,96010.25
2023-02-24T00:07:23.542Z,96006.47
2023-02-24T00:09:52.923Z,95941.59
2023-02-24T00:12:24.548Z,95992.94
2023-02-24T00:14:52.866Z,96009.72
2023-02-24T00:17:27.817Z,96011.09
2023-02-24T00:19:56.100Z,96009.16
2023-02-24T00:22:26.894Z,95964.88
2023-02-24T00:25:01.675Z,96007.16
2023-02-24T00:27:42.841Z,95993.88
2023-02-24T00:30:14.890Z,95956.69
2023-02-24T00:32:44.620Z,95975.50
2023-02-24T00:35:12.539Z,95982.41
2023-02-24T00:37:40.352Z,95974.19
2023-02-24T00:40:13.201Z,95970.38
2023-02-24T00:42:43.107Z,95982.47
2023-02-24T00:45:16.766Z,95965.16
2023-02-24T00:47:47.510Z,95967.16
2023-02-24T00:50:22.519Z,95967.78
2023-02-24T00:52:53.380Z,95979.47
2023-02-24T00:55:25.419Z,95979.88
2023-02-24T00:57:54.913Z,95972.91
2023-02-24T01:00:23.611Z,95969.91
2023-02-24T01:02:52.885Z,95939.13
2023-02-24T01:05:30.120Z,95970.97
2023-02-24T01:08:21.700Z,95916.56
2023-02-24T01:11:17.306Z,95981.03
2023-02-24T01:13:46.200Z,95981.75
2023-02-24T01:16:19.726Z,95972.38
2023-02-24T01:18:53.427Z,95972.97
2023-02-24T01:21:25.094Z,95965.78
2023-02-24T01:23:56.157Z,95966.19
2023-02-24T01:26:26.152Z,95956.59
2023-02-24T01:28:56.445Z,95953.00
2023-02-24T01:31:28.792Z,95023.47
2023-02-24T01:33:56.818Z,95948.16
2023-02-24T01:36:27.810Z,95946.31
2023-02-24T01:38:57.991Z,95939.91
2023-02-24T01:41:30.797Z,95936.84
2023-02-24T01:44:09.738Z,95939.03
2023-02-24T01:46:39.000Z,95934.53
2023-02-24T01:49:09.984Z,95930.09
2023-02-24T01:51:44.970Z,95926.53
2023-02-24T01:54:17.126Z,95928.53
2023-02-24T01:56:48.326Z,95929.78
2023-02-24T01:59:19.946Z,95925.31
2023-02-24T02:01:48.598Z,95927.34
2023-02-24T02:04:36.566Z,95906.50
2023-02-24T02:07:04.908Z,95925.44
2023-02-24T02:09:34.196Z,95923.47
2023-02-24T02:12:09.534Z,95921.44
2023-02-24T02:14:50.157Z,95915.69
2023-02-24T02:17:26.600Z,95917.22
2023-02-24T02:20:16.856Z,95910.66
2023-02-24T02:23:06.850Z,95901.09
2023-02-24T02:25:49.675Z,95891.84
2023-02-24T02:28:38.603Z,95868.44
2023-02-24T02:31:46.768Z,95904.06
2023-02-24T02:34:23.747Z,95898.91
2023-02-24T02:37:02.740Z,95890.19
2023-02-24T02:39:48.921Z,95888.22
2023-02-24T02:42:28.163Z,95873.84
2023-02-24T02:45:05.198Z,95876.88
2023-02-24T02:47:37.099Z,95885.06
2023-02-24T02:50:12.019Z,95880.50
2023-02-24T02:52:42.637Z,95878.16
2023-02-24T02:55:14.115Z,95876.94
2023-02-24T02:57:48.422Z,95864.78
2023-02-24T03:00:21.548Z,95873.97
2023-02-24T03:02:55.409Z,95878.81
2023-02-24T03:05:37.323Z,95880.72
2023-02-24T03:08:12.252Z,95868.38
2023-02-24T03:10:44.770Z,95863.31
2023-02-24T03:13:16.827Z,95860.50
2023-02-24T03:15:45.910Z,95858.25
2023-02-24T03:18:19.175Z,95812.63
2023-02-24T03:20:52.898Z,95848.13
2023-02-24T03:23:27.061Z,95844.09
2023-02-24T03:26:00.096Z,95801.53
2023-02-24T03:28:37.440Z,95848.75
2023-02-24T03:31:18.725Z,95861.22
2023-02-24T03:33:51.864Z,95838.00
2023-02-24T03:36:23.371Z,95846.44
2023-02-24T03:38:58.333Z,95843.91
2023-02-24T03:41:30.438Z,95842.56
2023-02-24T03:43:59.813Z,95859.22
2023-02-24T03:46:30.439Z,95856.91
2023-02-24T03:49:08.702Z,95767.84
2023-02-24T03:51:44.896Z,95859.63
2023-02-24T03:54:21.137Z,95852.28
2023-02-24T03:57:00.095Z,95843.34
2023-02-24T03:59:39.958Z,95844.84
2023-02-24T04:02:14.370Z,95845.28
2023-02-24T04:04:46.500Z,95848.59
2023-02-24T04:07:18.889Z,95864.16
2023-02-24T04:09:51.943Z,95859.06
2023-02-24T04:12:25.595Z,95846.00
2023-02-24T04:14:57.937Z,95805.84
2023-02-24T04:17:28.602Z,95823.09
2023-02-24T04:20:02.637Z,95850.41
2023-02-24T04:22:42.616Z,95832.34
2023-02-24T04:25:15.822Z,95845.69
2023-02-24T04:27:44.883Z,95839.59
2023-02-24T04:30:21.745Z,95806.31
2023-02-24T04:32:54.329Z,95752.78
2023-02-24T04:35:25.395Z,95821.38
2023-02-24T04:37:58.046Z,95822.03
2023-02-24T04:40:28.961Z,95831.59
2023-02-24T04:42:57.222Z,95832.56
2023-02-24T04:45:31.966Z,95831.16
2023-02-24T04:48:03.990Z,95830.06
2023-02-24T04:50:34.077Z,95818.28
2023-02-24T04:53:09.187Z,95821.47
2023-02-24T04:55:49.934Z,95808.72
2023-02-24T04:58:20.694Z,95808.22
2023-02-24T05:00:52.761Z,95793.28
2023-02-24T05:03:28.637Z,95816.31
2023-02-24T05:06:00.324Z,95786.44
2023-02-24T05:08:32.327Z,95806.53
2023-02-24T05:11:05.195Z,95765.41
2023-02-24T05:13:34.423Z,95794.97
2023-02-24T05:16:09.465Z,95495.69
2023-02-24T05:18:40.958Z,95784.69
2023-02-24T05:21:30.887Z,95777.88
2023-02-24T05:24:04.663Z,95764.91
2023-02-24T05:26:33.999Z,95761.06
2023-02-24T05:29:06.832Z,95754.13
2023-02-24T05:31:34.923Z,95756.59
2023-02-24T05:34:03.926Z,95757.88
2023-02-24T05:36:33.863Z,95734.22
2023-02-24T05:39:07.477Z,95751.44
2023-02-24T05:41:39.208Z,95745.84
2023-02-24T05:44:10.438Z,95726.59
2023-02-24T05:46:41.585Z,95661.84
2023-02-24T05:49:14.504Z,95737.53
2023-02-24T05:51:47.245Z,95739.00
2023-02-24T05:54:24.157Z,95735.41
2023-02-24T05:56:54.648Z,95724.44
2023-02-24T05:59:23.259Z,95735.31
2023-02-24T06:01:53.770Z,95733.44
2023-02-24T06:04:39.667Z,95738.69
2023-02-24T06:07:09.176Z,95734.28
2023-02-24T06:09:40.815Z,95735.44
2023-02-24T06:12:09.188Z,95734.56
2023-02-24T06:14:37.623Z,95732.38
2023-02-24T06:17:06.729Z,95708.06
2023-02-24T06:19:38.629Z,95765.75
2023-02-24T06:22:10.892Z,95709.13
2023-02-24T06:24:44.206Z,95726.25
2023-02-24T06:27:17.910Z,95730.53
2023-02-24T06:29:50.091Z,95730.59
2023-02-24T06:32:23.512Z,95623.91
2023-02-24T06:34:54.611Z,95728.34
2023-02-24T06:37:24.160Z,95672.56
2023-02-24T06:39:53.946Z,95722.75
2023-02-24T06:42:22.079Z,95672.88
2023-02-24T06:44:50.446Z,95700.47
2023-02-24T06:47:19.700Z,95709.81
2023-02-24T06:49:48.617Z,95691.09
2023-02-24T06:52:19.316Z,95708.28
2023-02-24T06:54:50.719Z,95711.53
2023-02-24T06:57:23.705Z,95704.66
2023-02-24T06:59:52.380Z,95704.38
2023-02-24T07:02:20.525Z,95716.16
2023-02-24T07:04:51.765Z,95710.75
2023-02-24T07:07:19.918Z,95659.63
2023-02-24T07:09:48.227Z,95704.34
2023-02-24T07:12:21.274Z,95694.72
2023-02-24T07:14:51.338Z,95705.09
2023-02-24T07:17:22.299Z,95705.56
2023-02-24T07:19:50.233Z,95703.47
2023-02-24T07:22:25.566Z,95714.41
2023-02-24T07:25:00.662Z,95699.16
2023-02-24T07:27:28.955Z,95706.53
2023-02-24T07:30:01.559Z,95691.69
2023-02-24T07:32:31.226Z,95671.53
2023-02-24T07:34:59.660Z,95701.81
2023-02-24T07:37:31.924Z,95693.69
2023-02-24T07:39:59.826Z,95692.56
2023-02-24T07:42:30.788Z,95685.88
2023-02-24T07:45:00.549Z,95695.59
2023-02-24T07:47:29.421Z,95682.66
2023-02-24T07:49:57.294Z,95687.13
2023-02-24T07:52:28.247Z,95657.13
2023-02-24T07:54:56.215Z,95673.84
2023-02-24T07:57:25.213Z,95673.31
2023-02-24T07:59:57.690Z,95625.91
2023-02-24T08:02:30.239Z,95676.31
2023-02-24T08:05:03.264Z,95607.53
2023-02-24T08:07:33.409Z,95677.28
2023-02-24T08:10:25.396Z,95668.69
2023-02-24T08:13:03.500Z,95639.78
2023-02-24T08:15:34.552Z,95454.25
2023-02-24T08:18:06.765Z,95655.09
2023-02-24T08:20:52.504Z,95675.53
2023-02-24T08:23:23.650Z,95671.34
2023-02-24T08:25:51.894Z,95667.22
2023-02-24T08:28:19.984Z,95607.88
2023-02-24T08:30:56.985Z,95664.16
2023-02-24T08:33:30.225Z,95666.97
2023-02-24T08:36:02.708Z,95659.03
2023-02-24T08:38:41.925Z,95642.16
2023-02-24T08:41:19.124Z,95649.97
2023-02-24T08:43:51.497Z,95644.34
2023-02-24T08:46:28.737Z,95541.66
2023-02-24T08:49:00.888Z,95636.31
2023-02-24T08:51:43.815Z,95631.41
2023-02-24T08:54:15.648Z,95635.28
2023-02-24T08:56:50.246Z,95631.81
2023-02-24T08:59:38.855Z,95631.06
2023-02-24T09:02:24.702Z,95629.00
2023-02-24T09:04:56.146Z,95622.53
2023-02-24T09:07:28.878Z,95621.69
2023-02-24T09:09:57.547Z,95620.63
2023-02-24T09:12:32.941Z,95584.31
2023-02-24T09:15:06.372Z,95612.91
2023-02-24T09:17:52.227Z,95605.34
2023-02-24T09:20:41.319Z,95613.59
2023-02-24T09:23:25.152Z,95603.00
2023-02-24T09:25:54.375Z,95610.91
2023-02-24T09:28:26.924Z,95608.66
2023-02-24T09:30:59.386Z,95589.09
2023-02-24T09:33:29.094Z,95617.44
2023-02-24T09:36:10.931Z,95619.22
2023-02-24T09:39:00.013Z,95613.63
2023-02-24T09:41:33.442Z,95585.63
2023-02-24T09:44:08.636Z,95613.59
2023-02-24T09:46:54.377Z,95618.34
2023-02-24T09:49:26.313Z,95607.28
2023-02-24T09:52:00.926Z,95591.13
2023-02-24T09:54:36.379Z,95592.22
2023-02-24T09:57:10.700Z,95564.25
2023-02-24T10:00:01.348Z,95597.28
2023-02-24T10:02:44.216Z,95568.47
2023-02-24T10:05:24.935Z,95589.38
2023-02-24T10:08:00.132Z,95594.03
2023-02-24T10:10:35.909Z,95590.00
2023-02-24T10:13:14.915Z,95590.44
2023-02-24T10:16:07.319Z,95583.28
2023-02-24T10:18:41.907Z,95577.16
2023-02-24T10:21:21.116Z,95583.03
2023-02-24T10:24:03.626Z,95588.69
2023-02-24T10:26:59.547Z,95588.00
2023-02-24T10:29:50.934Z,95587.03
2023-02-24T10:32:34.698Z,95587.13
2023-02-24T10:35:16.510Z,95585.00
2023-02-24T10:37:44.985Z,95588.75
2023-02-24T10:40:26.499Z,95571.72
2023-02-24T10:43:10.767Z,95578.94
2023-02-24T10:45:50.862Z,95548.00
2023-02-24T10:48:40.299Z,95577.03
2023-02-24T10:51:20.101Z,95575.19
2023-02-24T10:54:09.684Z,95574.53
2023-02-24T10:56:59.309Z,95554.72
2023-02-24T10:59:58.670Z,95548.59
2023-02-24T11:02:33.146Z,95544.16
2023-02-24T11:05:27.065Z,95547.13
2023-02-24T11:08:12.478Z,95542.59
2023-02-24T11:10:58.762Z,95545.41
2023-02-24T11:13:45.791Z,95542.88
2023-02-24T11:16:31.070Z,95534.91
2023-02-24T11:19:07.224Z,95531.66
2023-02-24T11:21:38.928Z,95524.41
2023-02-24T11:24:12.682Z,95480.25
2023-02-24T11:26:46.255Z,95516.16
2023-02-24T11:29:38.147Z,95474.34
2023-02-24T11:32:18.396Z,95437.72
2023-02-24T11:34:52.806Z,95502.09
2023-02-24T11:37:34.686Z,95406.34
2023-02-24T11:40:05.658Z,95477.28
2023-02-24T11:42:38.808Z,95459.88
2023-02-24T11:45:18.789Z,95380.88
2023-02-24T11:47:54.032Z,95439.53
2023-02-24T11:50:31.127Z,95457.06
2023-02-24T11:53:01.387Z,95418.81
2023-02-24T11:55:36.202Z,95398.69
2023-02-24T11:58:08.666Z,95421.75
2023-02-24T12:00:40.366Z,95429.38
2023-02-24T12:03:19.367Z,95420.97
2023-02-24T12:05:51.664Z,95414.50
2023-02-24T12:08:28.388Z,95403.19
2023-02-24T12:11:07.526Z,95143.16
2023-02-24T12:13:40.713Z,95385.03
2023-02-24T12:16:16.964Z,95381.69
2023-02-24T12:18:48.037Z,95376.88
2023-02-24T12:21:22.906Z,95361.59
2023-02-24T12:23:53.832Z,95349.72
2023-02-24T12:26:27.238Z,95369.78
2023-02-24T12:29:11.004Z,95358.44
2023-02-24T12:31:53.859Z,95367.97
2023-02-24T12:34:39.326Z,95133.41
2023-02-24T12:37:26.171Z,95352.53
2023-02-24T12:40:03.451Z,95349.97
2023-02-24T12:42:39.517Z,95343.94
2023-02-24T12:45:13.612Z,95345.78
2023-02-24T12:47:58.262Z,95355.75
2023-02-24T12:50:34.108Z,95337.81
2023-02-24T12:53:07.682Z,95329.50
2023-02-24T12:55:46.985Z,95311.69
2023-02-24T12:58:19.154Z,95331.50
2023-02-24T13:00:59.530Z,95309.31
2023-02-24T13:03:39.451Z,95258.19
2023-02-24T13:06:14.133Z,95326.50
2023-02-24T13:08:56.770Z,95315.09
2023-02-24T13:11:33.834Z,95311.84
2023-02-24T13:14:05.292Z,95314.31
2023-02-24T13:16:39.726Z,95313.13
2023-02-24T13:19:20.909Z,95300.97
2023-02-24T13:22:03.328Z,95305.88
2023-02-24T13:24:31.277Z,95299.22
2023-02-24T13:27:08.916Z,95301.88
2023-02-24T13:29:45.268Z,95295.47
2023-02-24T13:32:32.863Z,95300.44
2023-02-24T13:35:05.448Z,95282.13
2023-02-24T13:37:36.718Z,95284.47
2023-02-24T13:40:24.405Z,95283.50
2023-02-24T13:43:01.455Z,95275.81
2023-02-24T13:45:33.677Z,95266.00
2023-02-24T13:48:17.813Z,95267.69
2023-02-24T13:50:59.500Z,95252.50
2023-02-24T13:53:51.142Z,95261.34
2023-02-24T13:56:42.188Z,95245.63
2023-02-24T13:59:21.842Z,95263.19
2023-02-24T14:02:01.229Z,95260.13
2023-02-24T14:04:32.814Z,95257.72
2023-02-24T14:07:05.324Z,95268.16
2023-02-24T14:09:35.718Z,95254.66
2023-02-24T14:12:07.227Z,95224.06
2023-02-24T14:14:36.525Z,95249.38
2023-02-24T14:17:10.358Z,95239.25
2023-02-24T14:19:39.158Z,95243.25
2023-02-24T14:22:20.977Z,95242.56
2023-02-24T14:24:55.323Z,95247.97
2023-02-24T14:27:26.567Z,95239.84
2023-02-24T14:29:55.276Z,95230.75
2023-02-24T14:32:25.243Z,95225.72
2023-02-24T14:34:54.783Z,95207.78
2023-02-24T14:37:31.952Z,95206.75
2023-02-24T14:40:05.949Z,95223.69
2023-02-24T14:42:34.486Z,95222.59
2023-02-24T14:45:06.294Z,95204.94
2023-02-24T14:47:43.165Z,95213.88
2023-02-24T14:50:20.520Z,95208.66
2023-02-24T14:52:53.156Z,95206.19
2023-02-24T14:55:28.086Z,95204.81
2023-02-24T14:58:00.303Z,94951.25
2023-02-24T15:00:31.565Z,95189.34
2023-02-24T15:03:05.821Z,95190.16
2023-02-24T15:05:44.646Z,94919.72
2023-02-24T15:08:37.443Z,95155.22
2023-02-24T15:11:12.425Z,95170.44
2023-02-24T15:13:44.439Z,95183.44
2023-02-24T15:16:15.847Z,95179.53
2023-02-24T15:18:43.952Z,95158.63
2023-02-24T15:21:21.191Z,95163.56
2023-02-24T15:24:19.014Z,94773.34
2023-02-24T15:26:56.863Z,95166.50
2023-02-24T15:29:27.125Z,95168.06
2023-02-24T15:31:56.140Z,95164.47
2023-02-24T15:34:26.511Z,95152.66
2023-02-24T15:36:59.025Z,95138.91
2023-02-24T15:39:33.435Z,95110.19
2023-02-24T15:42:08.544Z,95152.59
2023-02-24T15:44:37.099Z,95139.84
2023-02-24T15:47:20.736Z,95122.44
2023-02-24T15:49:48.545Z,95104.22
2023-02-24T15:52:23.283Z,95071.56
2023-02-24T15:54:58.052Z,95141.38
2023-02-24T15:57:27.900Z,95142.47
2023-02-24T15:59:55.752Z,95135.00
2023-02-24T16:02:24.609Z,95092.06
2023-02-24T16:04:53.346Z,95135.41
2023-02-24T16:07:26.306Z,95079.94
2023-02-24T16:09:58.296Z,95137.00
2023-02-24T16:12:34.867Z,95071.31
2023-02-24T16:15:04.430Z,95142.88
2023-02-24T16:17:37.979Z,95142.22
2023-02-24T16:20:09.342Z,95138.28
2023-02-24T16:22:37.287Z,95139.47
2023-02-24T16:25:07.597Z,95144.81
2023-02-24T16:27:37.754Z,95145.13
2023-02-24T16:30:07.337Z,95120.56
2023-02-24T16:32:35.617Z,95125.16
2023-02-24T16:35:05.733Z,95136.97
2023-02-24T16:37:36.184Z,95137.03
2023-02-24T16:40:10.609Z,95144.94
2023-02-24T16:42:40.483Z,95140.91
2023-02-24T16:45:14.383Z,95140.91
2023-02-24T16:47:43.121Z,95137.66
2023-02-24T16:50:19.915Z,95102.94
2023-02-24T16:52:47.842Z,95133.56
2023-02-24T16:55:18.909Z,95129.56
2023-02-24T16:57:48.844Z,95134.63
2023-02-24T17:00:18.376Z,95134.41
2023-02-24T17:02:50.178Z,95121.16
2023-02-24T17:05:20.420Z,95111.38
2023-02-24T17:07:49.314Z,95122.69
2023-02-24T17:10:17.807Z,95126.28
2023-02-24T17:12:46.342Z,95118.75
2023-02-24T17:15:17.518Z,95102.06
2023-02-24T17:17:47.728Z,95053.03
2023-02-24T17:20:17.402Z,95129.28
2023-02-24T17:22:45.830Z,95128.47
2023-02-24T17:25:22.456Z,95124.22
2023-02-24T17:27:53.375Z,95146.50
2023-02-24T17:30:26.992Z,95147.69
2023-02-24T17:32:55.350Z,95141.47
2023-02-24T17:35:24.139Z,95140.13
2023-02-24T17:37:56.628Z,95091.63
2023-02-24T17:40:24.930Z,95131.16
2023-02-24T17:42:53.021Z,95137.50
2023-02-24T17:45:28.409Z,95127.44
2023-02-24T17:48:07.150Z,95135.50
2023-02-24T17:50:40.573Z,95107.88
2023-02-24T17:53:10.675Z,95138.56
2023-02-24T17:56:01.119Z,95131.03
2023-02-24T17:58:34.789Z,95026.84
2023-02-24T18:01:07.739Z,95066.59
2023-02-24T18:03:36.781Z,95081.72
2023-02-24T18:06:10.516Z,95120.38
2023-02-24T18:08:41.674Z,95126.88
2023-02-24T18:11:13.372Z,95116.00
2023-02-24T18:13:41.161Z,95126.94
2023-02-24T18:16:12.953Z,95125.06
2023-02-24T18:18:41.178Z,95141.34
2023-02-24T18:21:10.877Z,95122.28
2023-02-24T18:23:41.813Z,95142.13
2023-02-24T18:26:16.717Z,95099.25
2023-02-24T18:28:44.519Z,95125.22
2023-02-24T18:31:16.328Z,95115.63
2023-02-24T18:33:44.674Z,95131.03
2023-02-24T18:36:13.431Z,95128.34
2023-02-24T18:38:41.749Z,95114.00
2023-02-24T18:41:12.411Z,95125.94
2023-02-24T18:43:42.868Z,95087.47
2023-02-24T18:46:18.633Z,95139.66
2023-02-24T18:48:49.833Z,95139.19
2023-02-24T18:51:19.739Z,95142.75
2023-02-24T18:53:48.517Z,95138.41
2023-02-24T18:56:21.893Z,95142.84
2023-02-24T18:58:51.540Z,95139.22
2023-02-24T19:01:33.261Z,95135.84
2023-02-24T19:04:04.395Z,95135.44
2023-02-24T19:06:47.164Z,95129.06
2023-02-24T19:09:15.308Z,95134.34
2023-02-24T19:11:43.480Z,95138.22
2023-02-24T19:14:15.940Z,95105.28
2023-02-24T19:16:45.705Z,95131.00
2023-02-24T19:19:14.864Z,95126.22
2023-02-24T19:21:46.184Z,95132.66
2023-02-24T19:24:14.564Z,95127.22
2023-02-24T19:26:47.650Z,95135.28
2023-02-24T19:29:17.557Z,95132.06
2023-02-24T19:31:47.124Z,95123.41
2023-02-24T19:34:16.159Z,95131.25
2023-02-24T19:36:50.763Z,95139.06
2023-02-24T19:39:18.953Z,95134.22
2023-02-24T19:41:54.486Z,95128.91
2023-02-24T19:44:22.683Z,95140.81
2023-02-24T19:46:55.250Z,95115.81
2023-02-24T19:49:25.937Z,95122.38
2023-02-24T19:51:55.049Z,95122.91
2023-02-24T19:54:25.705Z,95077.28
2023-02-24T19:56:57.163Z,95103.91
2023-02-24T19:59:25.474Z,95098.00
2023-02-24T20:01:55.262Z,95117.53
2023-02-24T20:04:40.524Z,95107.53
2023-02-24T20:07:11.838Z,95129.19
2023-02-24T20:09:42.106Z,95054.38
2023-02-24T20:12:12.692Z,95124.53
2023-02-24T20:14:41.225Z,95122.34
2023-02-24T20:17:15.310Z,95113.88
2023-02-24T20:19:43.665Z,95124.31
2023-02-24T20:22:13.560Z,95128.69
2023-02-24T20:24:42.812Z,95100.59
2023-02-24T20:27:12.294Z,95141.13
2023-02-24T20:29:41.606Z,95120.47
2023-02-24T20:32:11.537Z,95135.41
2023-02-24T20:34:40.122Z,95152.31
2023-02-24T20:37:08.092Z,95144.16
2023-02-24T20:39:44.230Z,95153.28
2023-02-24T20:42:12.528Z,95136.97
2023-02-24T20:44:45.074Z,95175.72
2023-02-24T20:47:21.770Z,95147.34
2023-02-24T20:49:52.736Z,95167.28
2023-02-24T20:52:20.619Z,95173.88
2023-02-24T20:54:49.496Z,95164.25
2023-02-24T20:57:17.762Z,95165.47
2023-02-24T21:00:01.492Z,95172.19
2023-02-24T21:02:32.610Z,95176.28
2023-02-24T21:05:03.178Z,95121.72
2023-02-24T21:07:32.746Z,95181.63
2023-02-24T21:10:00.736Z,95184.66
2023-02-24T21:12:28.679Z,95175.81
2023-02-24T21:14:57.705Z,95171.47
2023-02-24T21:17:25.682Z,95174.19
2023-02-24T21:19:56.794Z,95142.25
2023-02-24T21:22:27.223Z,95176.47
2023-02-24T21:24:58.162Z,95192.47
2023-02-24T21:27:27.450Z,95194.78
2023-02-24T21:29:57.320Z,95177.44
2023-02-24T21:32:28.011Z,95203.91
2023-02-24T21:35:05.082Z,95210.28
2023-02-24T21:37:35.171Z,95202.13
2023-02-24T21:40:10.871Z,95222.59
2023-02-24T21:42:47.669Z,95226.31
2023-02-24T21:45:21.448Z,95208.16
2023-02-24T21:47:49.611Z,95231.25
2023-02-24T21:50:21.760Z,95211.81
2023-02-24T21:52:52.064Z,95249.16
2023-02-24T21:55:23.502Z,95248.53
2023-02-24T21:57:53.966Z,95252.16
2023-02-24T22:00:24.196Z,95157.47
2023-02-24T22:02:54.471Z,95248.47
2023-02-24T22:05:25.368Z,95254.78
2023-02-24T22:07:54.322Z,95255.94
2023-02-24T22:10:24.252Z,95251.25
2023-02-24T22:12:55.229Z,95234.63
2023-02-24T22:15:24.266Z,95246.09
2023-02-24T22:17:54.486Z,95250.63
2023-02-24T22:20:23.824Z,95253.66
2023-02-24T22:22:51.729Z,95255.66
2023-02-24T22:25:20.710Z,95239.66
2023-02-24T22:27:48.689Z,95247.47
2023-02-24T22:30:16.617Z,95243.72
2023-02-24T22:32:47.301Z,95235.22
2023-02-24T22:35:17.683Z,95243.63
2023-02-24T22:37:46.976Z,95235.75
2023-02-24T22:40:20.807Z,95225.50
2023-02-24T22:42:51.736Z,95241.75
2023-02-24T22:45:20.821Z,95238.59
2023-02-24T22:47:48.725Z,95234.47
2023-02-24T22:50:16.986Z,95239.63
2023-02-24T22:52:48.974Z,95243.25
2023-02-24T22:55:24.082Z,95246.84
2023-02-24T22:57:58.174Z,95247.56
2023-02-24T23:00:26.332Z,95237.94
2023-02-24T23:02:54.133Z,95244.72
2023-02-24T23:05:22.489Z,95245.00
2023-02-24T23:07:51.673Z,95245.75
2023-02-24T23:10:19.653Z,95243.25
2023-02-24T23:12:48.744Z,95248.97
2023-02-24T23:15:20.131Z,95247.88
2023-02-24T23:17:51.451Z,95243.75
2023-02-24T23:20:20.133Z,95251.66
2023-02-24T23:23:05.601Z,95254.84
2023-02-24T23:25:36.372Z,95251.78
2023-02-24T23:28:05.270Z,95243.91
2023-02-24T23:30:43.451Z,95241.25
2023-02-24T23:33:12.260Z,95246.94
2023-02-24T23:35:46.495Z,95238.69
2023-02-24T23:38:18.467Z,95242.75
2023-02-24T23:40:50.433Z,95180.88
2023-02-24T23:43:23.804Z,95252.00
2023-02-24T23:45:51.612Z,95259.56
2023-02-24T23:48:24.986Z,95268.97
2023-02-24T23:50:57.220Z,95279.63
2023-02-24T23:53:26.645Z,95271.59
2023-02-24T23:55:54.557Z,95279.88
2023-02-24T23:58:26.593Z,95281.03
